Time;durP1;ratioP1;P1;durP2;ratioP2;P2;SDS_P1;SDS_P2;PMS_P1;PMS_P2;Temp;Humidity;BMP_temperature;BMP_pressure;BME280_temperature;BME280_humidity;BME280_pressure;Samples;Min_cycle;Max_cycle;Signal;HPM_P1;HPM_P2
2021/04/13 00:01:23;;;;;;;15.00;10.32;;;;;;;-144.01;100.00;62166.59;5076818;28;20375;-45
2021/04/13 00:04:05;;;;;;;14.55;9.32;;;;;;;-144.01;100.00;62166.59;5076329;28;20044;-45
2021/04/13 00:06:45;;;;;;;15.75;10.05;;;;;;;-144.01;100.00;62166.59;5076434;28;20051;-44
2021/04/13 00:09:27;;;;;;;17.80;9.93;;;;;;;-144.01;100.00;62166.59;5059005;28;20041;-51
2021/04/13 00:11:59;;;;;;;29.00;9.70;;;;;;;-144.01;100.00;62166.59;5076588;28;20064;-44
2021/04/13 00:14:34;;;;;;;17.00;9.70;;;;;;;-144.01;100.00;62166.59;5075700;28;20366;-44
2021/04/13 00:17:06;;;;;;;13.10;9.70;;;;;;;-144.01;100.00;62166.59;5076623;28;20060;-43
2021/04/13 00:19:59;;;;;;;11.95;9.65;;;;;;;-144.01;100.00;62166.59;5076426;28;20067;-44
2021/04/13 00:22:26;;;;;;;;;;;;;;;-144.01;100.00;62166.59;5076834;28;20052;-45
2021/04/13 00:24:54;;;;;;;15.52;9.13;;;;;;;-144.01;100.00;62166.59;5058375;28;19912;-44
2021/04/13 00:27:24;;;;;;;21.75;8.90;;;;;;;-144.01;100.00;62166.59;5058115;28;20048;-44
2021/04/13 00:29:51;;;;;;;15.65;9.07;;;;;;;-144.01;100.00;62166.59;5058920;28;20567;-44
2021/04/13 00:32:22;;;;;;;15.45;8.75;;;;;;;-144.01;100.00;62166.59;5075574;28;20052;-44
2021/04/13 00:37:32;;;;;;;12.00;8.40;;;;;;;-144.01;100.00;62166.59;5059126;28;20501;-44
2021/04/13 00:40:23;;;;;;;13.48;9.43;;;;;;;-144.01;100.00;62166.59;5076281;28;20045;-43
2021/04/13 00:42:52;;;;;;;12.82;7.80;;;;;;;-144.01;100.00;62166.59;5058098;28;20052;-44
2021/04/13 00:45:29;;;;;;;10.82;8.40;;;;;;;-144.01;100.00;62166.59;5058451;28;20077;-45
2021/04/13 00:47:57;;;;;;;11.02;7.88;;;;;;;-144.01;100.00;62166.59;5076018;28;20048;-44
2021/04/13 00:50:31;;;;;;;12.32;8.52;;;;;;;-144.01;100.00;62166.59;5058057;28;20055;-44
2021/04/13 00:53:02;;;;;;;10.68;7.28;;;;;;;-144.01;100.00;62166.59;5058158;28;20056;-44
2021/04/13 00:55:37;;;;;;;10.98;7.50;;;;;;;-144.01;100.00;62166.59;5075572;28;20055;-44
2021/04/13 00:58:07;;;;;;;12.43;7.80;;;;;;;-144.01;100.00;62166.59;5057707;28;20056;-44
2021/04/13 01:00:40;;;;;;;13.75;7.03;;;;;;;-144.01;100.00;62166.59;5075414;28;20063;-43
2021/04/13 01:03:08;;;;;;;13.98;7.93;;;;;;;-144.01;100.00;62166.59;5058049;28;20056;-44
2021/04/13 01:05:48;;;;;;;9.93;7.43;;;;;;;-144.01;100.00;62166.59;5057792;28;20063;-44
2021/04/13 01:08:29;;;;;;;9.65;7.15;;;;;;;-144.01;100.00;62166.59;5075616;28;20060;-44
2021/04/13 01:10:58;;;;;;;11.40;6.85;;;;;;;-144.01;100.00;62166.59;5075476;28;20040;-44
2021/04/13 01:13:44;;;;;;;10.48;7.38;;;;;;;-144.01;100.00;62166.59;5075349;28;20052;-45
2021/04/13 01:16:12;;;;;;;11.32;6.57;;;;;;;-144.01;100.00;62166.59;5057841;28;20052;-44
2021/04/13 01:18:41;;;;;;;9.18;6.80;;;;;;;-144.01;100.00;62166.59;5057426;28;20044;-43
2021/04/13 01:21:15;;;;;;;10.68;6.97;;;;;;;-144.01;100.00;62166.59;5057611;28;20442;-44
2021/04/13 01:24:00;;;;;;;10.80;7.10;;;;;;;-144.01;100.00;62166.59;5057722;28;20359;-44
2021/04/13 01:26:32;;;;;;;11.45;6.70;;;;;;;-144.01;100.00;62166.59;5074175;28;20048;-45
2021/04/13 01:28:59;;;;;;;8.60;6.60;;;;;;;-144.01;100.00;62166.59;5057533;28;20449;-43
2021/04/13 01:31:47;;;;;;;9.90;6.90;;;;;;;-144.01;100.00;62166.59;5075369;28;20056;-43
2021/04/13 01:34:40;;;;;;;10.13;6.90;;;;;;;-144.01;100.00;62166.59;5057110;28;20044;-43
2021/04/13 01:43:24;;;;;;;10.77;6.78;;;;;;;-144.01;100.00;62166.59;5075001;28;20056;-43
2021/04/13 01:45:51;;;;;;;13.68;7.03;;;;;;;-144.01;100.00;62166.59;5040827;28;20044;-44
2021/04/13 01:48:19;;;;;;;8.85;6.50;;;;;;;-144.01;100.00;62166.59;5057109;28;20048;-51
2021/04/13 01:50:58;;;;;;;13.52;7.18;;;;;;;-144.01;100.00;62166.59;5074976;28;20040;-44
2021/04/13 01:53:26;;;;;;;10.13;6.70;;;;;;;-144.01;100.00;62166.59;5057150;28;20052;-43
2021/04/13 01:56:02;;;;;;;10.20;7.00;;;;;;;-144.01;100.00;62166.59;5057238;28;20048;-44
2021/04/13 01:58:57;;;;;;;10.10;6.90;;;;;;;-144.01;100.00;62166.59;5074637;28;20056;-45
2021/04/13 02:01:31;;;;;;;10.85;7.15;;;;;;;-144.01;100.00;62166.59;5057391;28;20053;-45
2021/04/13 02:04:20;;;;;;;9.13;6.90;;;;;;;-144.01;100.00;62166.59;5057046;28;20362;-44
2021/04/13 02:10:05;;;;;;;11.57;6.65;;;;;;;-144.01;100.00;62166.59;5029289;28;20044;-45
2021/04/13 02:12:38;;;;;;;12.32;7.13;;;;;;;-144.01;100.00;62166.59;5074780;28;20056;-45
2021/04/13 02:15:27;;;;;;;10.93;7.00;;;;;;;-144.01;100.00;62166.59;5056924;28;20362;-43
2021/04/13 02:17:58;;;;;;;12.02;7.70;;;;;;;-144.01;100.00;62166.59;5074732;28;20065;-43
2021/04/13 02:20:34;;;;;;;10.00;6.82;;;;;;;-144.01;100.00;62166.59;5057154;28;20040;-44
2021/04/13 02:23:02;;;;;;;10.88;6.60;;;;;;;-144.01;100.00;62166.59;5057575;28;20051;-45
2021/04/13 02:25:32;;;;;;;12.15;6.68;;;;;;;-144.01;100.00;62166.59;5056711;28;20071;-43
2021/04/13 02:28:00;;;;;;;11.85;7.00;;;;;;;-144.01;100.00;62166.59;5056870;28;20048;-45
2021/04/13 02:30:44;;;;;;;10.70;7.00;;;;;;;-144.01;100.00;62166.59;5074364;28;20048;-45
2021/04/13 02:33:23;;;;;;;11.50;6.75;;;;;;;-144.01;100.00;62166.59;5057336;28;20045;-44
2021/04/13 02:35:50;;;;;;;10.02;6.38;;;;;;;-144.01;100.00;62166.59;5054386;28;20435;-43
2021/04/13 02:38:22;;;;;;;9.77;5.80;;;;;;;-144.01;100.00;62166.59;5038314;28;20052;-44
2021/04/13 02:41:11;;;;;;;12.75;6.05;;;;;;;-144.01;100.00;62166.59;5040801;28;20040;-43
2021/04/13 02:43:46;;;;;;;7.13;4.80;;;;;;;-144.01;100.00;62166.59;5044021;28;20055;-44
2021/04/13 02:46:24;;;;;;;8.73;4.43;;;;;;;-144.01;100.00;62166.59;5060439;28;20059;-45
2021/04/13 02:48:55;;;;;;;15.82;4.63;;;;;;;-144.01;100.00;62166.59;5060275;28;20328;-45
2021/04/13 02:51:23;;;;;;;10.73;4.40;;;;;;;-144.01;100.00;62166.59;5060426;28;20216;-45
2021/04/13 02:53:54;;;;;;;9.52;4.78;;;;;;;-144.01;100.00;62166.59;5077872;28;20059;-45
2021/04/13 02:56:41;;;;;;;11.52;4.43;;;;;;;-144.01;100.00;62166.59;5060453;28;20053;-43
2021/04/13 02:59:08;;;;;;;10.02;4.68;;;;;;;-144.01;100.00;62166.59;5057942;28;20379;-44
2021/04/13 03:01:36;;;;;;;13.35;4.47;;;;;;;-144.01;100.00;62166.59;5057824;28;20486;-43
2021/04/13 03:04:12;;;;;;;9.45;4.43;;;;;;;-144.01;100.00;62166.59;5063433;28;20046;-44
2021/04/13 03:06:43;;;;;;;7.53;4.20;;;;;;;-144.01;100.00;62166.59;5077574;28;20056;-42
2021/04/13 03:09:12;;;;;;;8.20;4.35;;;;;;;-144.01;100.00;62166.59;5060473;28;20047;-43
2021/04/13 03:11:49;;;;;;;8.60;4.40;;;;;;;-144.01;100.00;62166.59;5060119;28;20060;-43
2021/04/13 03:14:18;;;;;;;9.50;4.63;;;;;;;-144.01;100.00;62166.59;5059269;28;20367;-45
2021/04/13 03:16:47;;;;;;;13.40;5.25;;;;;;;-144.01;100.00;62166.59;5059981;28;20060;-43
2021/04/13 03:19:19;;;;;;;8.48;5.05;;;;;;;-144.01;100.00;62166.59;5059899;28;20075;-45
2021/04/13 03:21:49;;;;;;;10.45;5.15;;;;;;;-144.01;100.00;62166.59;5059854;28;20052;-43
2021/04/13 03:24:24;;;;;;;15.20;5.05;;;;;;;-144.01;100.00;62166.59;5059396;28;20048;-44
2021/04/13 03:27:06;;;;;;;11.60;5.10;;;;;;;-144.01;100.00;62166.59;5059415;28;20040;-43
2021/04/13 03:29:44;;;;;;;10.25;5.38;;;;;;;-144.01;100.00;62166.59;5077330;28;20348;-44
2021/04/13 03:32:13;;;;;;;14.55;6.43;;;;;;;-144.01;100.00;62166.59;5077509;28;20059;-45
2021/04/13 03:34:42;;;;;;;12.50;5.30;;;;;;;-144.01;100.00;62166.59;5076372;28;20448;-43
2021/04/13 03:37:10;;;;;;;11.90;5.70;;;;;;;-144.01;100.00;62166.59;5076982;28;20052;-43
2021/04/13 03:39:40;;;;;;;10.50;4.55;;;;;;;-144.01;100.00;62166.59;5041749;28;20040;-45
2021/04/13 03:42:15;;;;;;;11.73;4.85;;;;;;;-144.01;100.00;62166.59;5059184;28;20040;-44
2021/04/13 03:44:43;;;;;;;10.38;5.88;;;;;;;-144.01;100.00;62166.59;5058800;28;20049;-46
2021/04/13 03:47:14;;;;;;;12.40;5.20;;;;;;;-144.01;100.00;62166.59;5059392;28;20052;-44
2021/04/13 03:49:42;;;;;;;10.73;5.53;;;;;;;-144.01;100.00;62166.59;5076126;28;20059;-44
2021/04/13 03:52:22;;;;;;;12.77;6.22;;;;;;;-144.01;100.00;62166.59;5077114;28;20056;-45
2021/04/13 03:54:50;;;;;;;13.15;6.28;;;;;;;-144.01;100.00;62166.59;5058875;28;20067;-44
2021/04/13 03:57:33;;;;;;;13.52;6.80;;;;;;;-144.01;100.00;62166.59;5075708;28;20055;-46
2021/04/13 04:00:04;;;;;;;14.43;6.80;;;;;;;-144.01;100.00;62166.59;5076900;28;20045;-48
2021/04/13 04:02:33;;;;;;;13.45;6.95;;;;;;;-144.01;100.00;62166.59;5059590;28;20363;-47
2021/04/13 04:05:15;;;;;;;14.35;6.18;;;;;;;-144.01;100.00;62166.59;5058918;28;20054;-45
2021/04/13 04:10:28;;;;;;;11.35;5.30;;;;;;;-144.01;100.00;62166.59;5076613;28;20469;-45
2021/04/13 04:13:20;;;;;;;14.07;5.35;;;;;;;-144.01;100.00;62166.59;5076375;28;20369;-49
2021/04/13 04:16:03;;;;;;;11.43;5.47;;;;;;;-144.01;100.00;62166.59;5066282;28;20052;-48
2021/04/13 04:18:34;;;;;;;9.02;5.25;;;;;;;-144.01;100.00;62166.59;5076037;28;20354;-48
2021/04/13 04:21:14;;;;;;;11.85;5.60;;;;;;;-144.01;100.00;62166.59;5057720;28;20040;-53
2021/04/13 04:23:42;;;;;;;7.18;5.80;;;;;;;-144.01;100.00;62166.59;5073248;28;20059;-45
2021/04/13 04:26:10;;;;;;;15.80;5.85;;;;;;;-144.01;100.00;62166.59;5076167;28;20051;-50
2021/04/13 04:28:41;;;;;;;12.38;5.57;;;;;;;-144.01;100.00;62166.59;5041492;28;20074;-43
2021/04/13 04:31:37;;;;;;;9.63;4.97;;;;;;;-144.01;100.00;62166.59;5076084;28;20060;-43
2021/04/13 04:34:13;;;;;;;8.43;5.40;;;;;;;-144.01;100.00;62166.59;5068711;28;20048;-51
2021/04/13 04:36:52;;;;;;;10.18;5.93;;;;;;;-144.01;100.00;62166.59;5075714;28;20048;-45
2021/04/13 04:39:29;;;;;;;17.60;10.55;;;;;;;-144.01;100.00;62166.59;5056379;28;20055;-49
2021/04/13 04:42:07;;;;;;;11.90;8.10;;;;;;;-144.01;100.00;62166.59;5075412;28;20422;-46
2021/04/13 04:44:34;;;;;;;13.77;8.20;;;;;;;-144.01;100.00;62166.59;5075408;28;20474;-50
2021/04/13 04:47:01;;;;;;;18.05;8.93;;;;;;;-144.01;100.00;62166.59;5076033;28;20044;-47
2021/04/13 04:49:40;;;;;;;13.27;6.75;;;;;;;-144.01;100.00;62166.59;5075980;28;20045;-47
2021/04/13 04:52:07;;;;;;;12.85;7.18;;;;;;;-144.01;100.00;62166.59;5075843;28;20052;-43
2021/04/13 04:54:35;;;;;;;12.57;7.57;;;;;;;-144.01;100.00;62166.59;5057789;28;20055;-47
2021/04/13 04:57:04;;;;;;;13.52;7.45;;;;;;;-144.01;100.00;62166.59;5075343;28;20051;-46
2021/04/13 04:59:31;;;;;;;16.60;8.00;;;;;;;-144.01;100.00;62166.59;5075438;28;20475;-48
2021/04/13 05:01:58;;;;;;;16.10;7.70;;;;;;;-144.01;100.00;62166.59;5075642;28;20041;-46
2021/04/13 05:04:25;;;;;;;15.43;8.35;;;;;;;-144.01;100.00;62166.59;5075115;28;20078;-44
2021/04/13 05:06:52;;;;;;;17.42;7.70;;;;;;;-144.01;100.00;62166.59;5075609;28;20048;-49
2021/04/13 05:09:19;;;;;;;12.85;7.25;;;;;;;-144.01;100.00;62166.59;5075676;28;20370;-48
2021/04/13 05:11:46;;;;;;;11.38;7.20;;;;;;;-144.01;100.00;62166.59;5075555;28;20051;-46
2021/04/13 05:14:14;;;;;;;14.27;7.43;;;;;;;-144.01;100.00;62166.59;5075159;28;20075;-45
2021/04/13 05:16:41;;;;;;;15.77;7.85;;;;;;;-144.01;100.00;62166.59;5075408;28;20335;-46
2021/04/13 05:19:08;;;;;;;15.13;7.90;;;;;;;-144.01;100.00;62166.59;5075584;28;20044;-45
2021/04/13 05:21:35;;;;;;;14.60;8.32;;;;;;;-144.01;100.00;62166.59;5075358;28;20055;-45
2021/04/13 05:24:03;;;;;;;16.58;8.95;;;;;;;-144.01;100.00;62166.59;5074997;28;20344;-45
2021/04/13 05:26:31;;;;;;;11.38;7.60;;;;;;;-144.01;100.00;62166.59;5075192;28;20052;-45
2021/04/13 05:28:58;;;;;;;12.25;7.43;;;;;;;-144.01;100.00;62166.59;5075182;28;20045;-47
2021/04/13 05:31:25;;;;;;;12.55;7.22;;;;;;;-144.01;100.00;62166.59;5075131;28;20040;-46
2021/04/13 05:33:52;;;;;;;12.95;7.20;;;;;;;-144.01;100.00;62166.59;5075241;28;20465;-47
2021/04/13 05:36:19;;;;;;;12.05;7.20;;;;;;;-144.01;100.00;62166.59;5075224;28;20051;-45
2021/04/13 05:38:48;;;;;;;12.80;7.90;;;;;;;-144.01;100.00;62166.59;5075206;28;20431;-46
2021/04/13 05:41:15;;;;;;;13.18;7.47;;;;;;;-144.01;100.00;62166.59;5057620;28;20470;-49
2021/04/13 05:43:43;;;;;;;13.57;7.80;;;;;;;-144.01;100.00;62166.59;5075320;28;20048;-45
2021/04/13 05:46:14;;;;;;;10.82;7.75;;;;;;;-144.01;100.00;62166.59;5075018;28;20351;-46
2021/04/13 05:48:41;;;;;;;12.60;7.85;;;;;;;-144.01;100.00;62166.59;5057526;28;20363;-50
2021/04/13 05:51:08;;;;;;;18.70;7.20;;;;;;;-144.01;100.00;62166.59;5073701;28;20360;-46
2021/04/13 05:53:35;;;;;;;12.35;7.22;;;;;;;-144.01;100.00;62166.59;5075146;28;20056;-45
2021/04/13 05:56:02;;;;;;;16.27;8.82;;;;;;;-144.01;100.00;62166.59;5074085;28;20052;-45
2021/04/13 05:58:34;;;;;;;13.35;9.38;;;;;;;-144.01;100.00;62166.59;5056552;28;20048;-46
2021/04/13 06:01:03;;;;;;;17.75;9.75;;;;;;;-144.01;100.00;62166.59;5056628;28;20079;-44
2021/04/13 06:03:31;;;;;;;16.67;8.88;;;;;;;-144.01;100.00;62166.59;5057641;28;20075;-47
2021/04/13 06:05:58;;;;;;;12.88;7.65;;;;;;;-144.01;100.00;62166.59;5057251;28;20052;-45
2021/04/13 06:08:26;;;;;;;15.10;8.18;;;;;;;-144.01;100.00;62166.59;5057256;28;20366;-45
2021/04/13 06:10:56;;;;;;;12.15;7.65;;;;;;;-144.01;100.00;62166.59;5057291;28;20048;-49
2021/04/13 06:13:25;;;;;;;10.50;8.13;;;;;;;-144.01;100.00;62166.59;5058885;28;20056;-45
2021/04/13 06:15:54;;;;;;;14.57;7.93;;;;;;;-144.01;100.00;62166.59;5078840;28;20484;-46
2021/04/13 06:18:22;;;;;;;11.02;7.28;;;;;;;-144.01;100.00;62166.59;5078550;28;20359;-45
2021/04/13 06:20:51;;;;;;;12.57;7.53;;;;;;;-144.01;100.00;62166.59;5078830;28;20059;-47
2021/04/13 06:23:18;;;;;;;13.95;8.20;;;;;;;-144.01;100.00;62166.59;5078891;28;20055;-46
2021/04/13 06:25:45;;;;;;;16.00;7.75;;;;;;;-144.01;100.00;62166.59;5078626;28;20063;-45
2021/04/13 06:28:12;;;;;;;10.93;7.88;;;;;;;-144.01;100.00;62166.59;5077906;28;20048;-50
2021/04/13 06:30:41;;;;;;;11.23;7.70;;;;;;;-144.01;100.00;62166.59;5078534;28;20060;-47
2021/04/13 06:33:08;;;;;;;16.15;8.07;;;;;;;-144.01;100.00;62166.59;5078702;28;20449;-46
2021/04/13 06:35:36;;;;;;;17.48;8.80;;;;;;;-144.01;100.00;62166.59;5078128;28;20056;-49
2021/04/13 06:38:08;;;;;;;15.90;8.65;;;;;;;-144.01;100.00;62166.59;5078105;28;20043;-46
2021/04/13 06:41:04;;;;;;;14.75;7.57;;;;;;;-144.01;100.00;62166.59;5060456;28;20075;-47
2021/04/13 06:43:48;;;;;;;13.20;7.45;;;;;;;-144.01;100.00;62166.59;4987942;28;20539;-47
2021/04/13 06:46:27;;;;;;;12.40;7.45;;;;;;;-144.01;100.00;62166.59;5055714;28;20048;-46
2021/04/13 06:49:00;;;;;;;13.02;7.43;;;;;;;-144.01;100.00;62166.59;5068806;28;20446;-46
2021/04/13 06:51:51;;;;;;;16.80;11.05;;;;;;;-144.01;100.00;62166.59;5077724;28;20055;-48
2021/04/13 06:54:41;;;;;;;14.85;8.70;;;;;;;-144.01;100.00;62166.59;5044509;28;20060;-45
2021/04/13 06:57:42;;;;;;;14.52;7.85;;;;;;;-144.01;100.00;62166.59;5077538;28;20052;-47
2021/04/13 07:00:22;;;;;;;10.10;6.85;;;;;;;-144.01;100.00;62166.59;5060909;28;20056;-45
2021/04/13 07:02:58;;;;;;;17.00;7.65;;;;;;;-144.01;100.00;62166.59;5060479;28;20462;-45
2021/04/13 07:05:33;;;;;;;14.70;6.75;;;;;;;-144.01;100.00;62166.59;5077836;28;20856;-46
2021/04/13 07:08:13;;;;;;;10.52;6.32;;;;;;;-144.01;100.00;62166.59;5059091;28;20131;-45
2021/04/13 07:10:45;;;;;;;13.55;7.40;;;;;;;-144.01;100.00;62166.59;5077548;28;20044;-46
2021/04/13 07:13:44;;;;;;;12.10;7.47;;;;;;;-144.01;100.00;62166.59;5060764;28;20052;-45
2021/04/13 07:16:24;;;;;;;11.55;6.65;;;;;;;-144.01;100.00;62166.59;5060203;28;20048;-45
2021/04/13 07:19:16;;;;;;;12.98;7.20;;;;;;;-144.01;100.00;62166.59;5059942;28;20474;-45
2021/04/13 07:21:56;;;;;;;12.53;6.13;;;;;;;-144.01;100.00;62166.59;5060165;28;20361;-44
2021/04/13 07:24:25;;;;;;;23.10;13.73;;;;;;;-144.01;100.00;62166.59;5058734;28;20048;-49
2021/04/13 07:27:06;;;;;;;25.60;14.48;;;;;;;-144.01;100.00;62166.59;5059348;28;20060;-45
2021/04/13 07:29:40;;;;;;;17.58;10.30;;;;;;;-144.01;100.00;62166.59;5059859;28;20052;-44
2021/04/13 07:32:08;;;;;;;10.57;7.93;;;;;;;-144.01;100.00;62166.59;5076371;28;20051;-45
2021/04/13 07:34:40;;;;;;;11.63;7.88;;;;;;;-144.01;100.00;62166.59;5077262;28;20335;-44
2021/04/13 07:37:24;;;;;;;11.73;7.57;;;;;;;-144.01;100.00;62166.59;5076965;28;20052;-48
2021/04/13 07:39:54;;;;;;;13.73;8.00;;;;;;;-144.01;100.00;62166.59;5077046;28;20044;-46
2021/04/13 07:42:35;;;;;;;14.05;8.50;;;;;;;-144.01;100.00;62166.59;5076790;28;20095;-46
2021/04/13 07:45:27;;;;;;;11.20;7.60;;;;;;;-144.01;100.00;62166.59;5042257;28;20048;-45
2021/04/13 07:48:09;;;;;;;9.80;7.15;;;;;;;-144.01;100.00;62166.59;5059706;28;20052;-45
2021/04/13 07:51:00;;;;;;;11.90;7.47;;;;;;;-144.01;100.00;62166.59;5076836;28;20051;-45
2021/04/13 07:53:47;;;;;;;10.52;7.05;;;;;;;-144.01;100.00;62166.59;5076670;28;20135;-46
2021/04/13 07:56:35;;;;;;;13.18;7.90;;;;;;;-144.01;100.00;62166.59;5059319;28;20051;-45
2021/04/13 07:59:24;;;;;;;14.90;7.88;;;;;;;-144.01;100.00;62166.59;5063123;28;20063;-44
2021/04/13 08:01:51;;;;;;;15.50;7.45;;;;;;;-144.01;100.00;62166.59;5076764;28;20047;-44
2021/04/13 08:04:26;;;;;;;15.63;7.25;;;;;;;-144.01;100.00;62166.59;5076500;28;20049;-44
2021/04/13 08:07:00;;;;;;;13.90;6.60;;;;;;;-144.01;100.00;62166.59;5076496;28;20040;-44
2021/04/13 08:09:37;;;;;;;9.75;6.05;;;;;;;-144.01;100.00;62166.59;5075834;28;20055;-44
2021/04/13 08:12:09;;;;;;;17.67;6.70;;;;;;;-144.01;100.00;62166.59;5076469;28;20048;-41
2021/04/13 08:14:39;;;;;;;13.02;6.95;;;;;;;-144.01;100.00;62166.59;5056456;28;20049;-42
2021/04/13 08:17:10;;;;;;;13.90;7.30;;;;;;;-144.01;100.00;62166.59;5039052;28;20473;-41
2021/04/13 08:19:37;;;;;;;14.00;7.50;;;;;;;-144.01;100.00;62166.59;5038449;28;20067;-42
2021/04/13 08:22:18;;;;;;;11.32;6.25;;;;;;;-144.01;100.00;62166.59;5050938;28;20064;-42
2021/04/13 08:24:53;;;;;;;11.60;6.05;;;;;;;-144.01;100.00;62166.59;5055800;28;20366;-42
2021/04/13 08:27:35;;;;;;;10.55;5.97;;;;;;;-144.01;100.00;62166.59;5070258;28;20056;-43
2021/04/13 08:30:16;;;;;;;12.68;6.20;;;;;;;-144.01;100.00;62166.59;5076280;28;20056;-41
2021/04/13 08:33:16;;;;;;;10.75;6.35;;;;;;;-144.01;100.00;62166.59;5058318;28;20048;-41
2021/04/13 08:35:45;;;;;;;14.50;6.32;;;;;;;-144.01;100.00;62166.59;5045046;28;20174;-42
2021/04/13 08:38:40;;;;;;;12.95;6.75;;;;;;;-144.01;100.00;62166.59;5058693;28;20051;-42
2021/04/13 08:41:11;;;;;;;15.48;6.50;;;;;;;-144.01;100.00;62166.59;5075984;28;20394;-43
2021/04/13 08:43:51;;;;;;;12.18;6.40;;;;;;;-144.01;100.00;62166.59;5075461;28;20048;-43
2021/04/13 08:46:35;;;;;;;16.10;7.72;;;;;;;-144.01;100.00;62166.59;5075728;28;20075;-41
2021/04/13 08:49:17;;;;;;;11.57;6.30;;;;;;;-144.01;100.00;62166.59;5075644;28;20060;-43
2021/04/13 08:51:47;;;;;;;17.33;6.50;;;;;;;-144.01;100.00;62166.59;5076041;28;20040;-42
2021/04/13 08:54:23;;;;;;;12.30;6.72;;;;;;;-144.01;100.00;62166.59;5075426;28;20083;-42
2021/04/13 08:56:59;;;;;;;12.38;6.28;;;;;;;-144.01;100.00;62166.59;5075442;28;20370;-46
2021/04/13 08:59:45;;;;;;;15.48;10.52;;;;;;;-144.01;100.00;62166.59;5076182;28;20052;-42
2021/04/13 09:02:22;;;;;;;20.35;12.27;;;;;;;-144.01;100.00;62166.59;5075898;28;20067;-42
2021/04/13 09:05:20;;;;;;;14.55;7.68;;;;;;;-144.01;100.00;62166.59;5057779;28;20055;-42
2021/04/13 09:07:47;;;;;;;15.63;7.38;;;;;;;-144.01;100.00;62166.59;5075188;28;20048;-42
2021/04/13 09:10:34;;;;;;;17.65;8.00;;;;;;;-144.01;100.00;62166.59;5075656;28;20044;-41
2021/04/13 09:13:13;;;;;;;13.40;7.00;;;;;;;-144.01;100.00;62166.59;5075356;28;20045;-42
2021/04/13 09:16:06;;;;;;;13.50;6.00;;;;;;;-144.01;100.00;62166.59;5075441;28;20048;-42
2021/04/13 09:18:44;;;;;;;14.05;6.07;;;;;;;-144.01;100.00;62166.59;5075848;28;20052;-42
2021/04/13 09:21:27;;;;;;;11.55;5.50;;;;;;;-144.01;100.00;62166.59;5075683;28;20328;-49
2021/04/13 09:24:08;;;;;;;9.25;5.90;;;;;;;-144.01;100.00;62166.59;5057949;28;20055;-42
2021/04/13 09:26:42;;;;;;;11.15;6.05;;;;;;;-144.01;100.00;62166.59;5038859;28;20052;-42
2021/04/13 09:29:33;;;;;;;12.40;6.50;;;;;;;-144.01;100.00;62166.59;5075326;28;20052;-43
2021/04/13 09:32:02;;;;;;;12.85;5.82;;;;;;;-144.01;100.00;62166.59;5075302;28;20047;-42
2021/04/13 09:35:07;;;;;;;13.68;5.93;;;;;;;-144.01;100.00;62166.59;5075009;28;20059;-42
2021/04/13 09:37:49;;;;;;;11.18;5.53;;;;;;;-144.01;100.00;62166.59;5075485;28;20040;-42
2021/04/13 09:40:25;;;;;;;14.10;6.60;;;;;;;-144.01;100.00;62166.59;5075374;28;20352;-47
2021/04/13 09:43:05;;;;;;;15.70;6.30;;;;;;;-144.01;100.00;62166.59;5074909;28;20040;-43
2021/04/13 09:46:10;;;;;;;13.75;6.50;;;;;;;-144.01;100.00;62166.59;5057175;28;20044;-43
2021/04/13 09:48:52;;;;;;;13.45;6.28;;;;;;;-144.01;100.00;62166.59;5074205;28;20056;-43
2021/04/13 09:51:28;;;;;;;17.08;8.68;;;;;;;-144.01;100.00;62166.59;5075140;28;20474;-41
2021/04/13 09:54:20;;;;;;;18.10;8.32;;;;;;;-144.01;100.00;62166.59;5074764;28;20056;-41
2021/04/13 09:56:53;;;;;;;17.67;9.38;;;;;;;-144.01;100.00;62166.59;5057229;28;20494;-42
2021/04/13 09:59:39;;;;;;;20.25;9.27;;;;;;;-144.01;100.00;62166.59;5075388;28;20060;-44
2021/04/13 10:02:20;;;;;;;17.60;8.85;;;;;;;-144.01;100.00;62166.59;5075129;28;20040;-42
2021/04/13 10:05:00;;;;;;;14.40;8.38;;;;;;;-144.01;100.00;62166.59;5074457;28;20048;-42
2021/04/13 10:07:58;;;;;;;15.95;6.88;;;;;;;-144.01;100.00;62166.59;5057545;28;20051;-42
2021/04/13 10:10:30;;;;;;;11.65;6.55;;;;;;;-144.01;100.00;62166.59;5058580;28;20055;-42
2021/04/13 10:13:23;;;;;;;16.40;7.65;;;;;;;-144.01;100.00;62166.59;5056428;28;20040;-42
2021/04/13 10:16:18;;;;;;;11.73;7.03;;;;;;;-144.01;100.00;62166.59;5056821;28;20052;-41
2021/04/13 10:19:28;;;;;;;11.75;6.65;;;;;;;-144.01;100.00;62166.59;5074941;28;20048;-42
2021/04/13 10:22:33;;;;;;;11.35;6.80;;;;;;;-144.01;100.00;62166.59;5074486;28;20369;-42
2021/04/13 10:25:25;;;;;;;12.15;6.57;;;;;;;-144.01;100.00;62166.59;5056705;28;20053;-41
2021/04/13 10:28:40;;;;;;;18.58;9.95;;;;;;;-144.01;100.00;62166.59;5074569;28;20049;-43
2021/04/13 10:31:17;;;;;;;34.60;15.98;;;;;;;-144.01;100.00;62166.59;5053500;28;20051;-43
2021/04/13 10:33:59;;;;;;;33.60;15.73;;;;;;;-144.01;100.00;62166.59;5074608;28;20455;-42
2021/04/13 10:36:37;;;;;;;37.78;19.02;;;;;;;-144.01;100.00;62166.59;5056944;28;20059;-42
2021/04/13 10:39:47;;;;;;;12.50;5.93;;;;;;;-144.01;100.00;62166.59;5074866;28;20385;-42
2021/04/13 10:42:17;;;;;;;10.73;5.55;;;;;;;-144.01;100.00;62166.59;5074756;28;20052;-42
2021/04/13 10:45:15;;;;;;;11.57;5.00;;;;;;;-144.01;100.00;62166.59;5074349;28;20065;-41
2021/04/13 10:47:50;;;;;;;10.38;4.05;;;;;;;-144.01;100.00;62166.59;5074741;28;20359;-42
2021/04/13 10:50:45;;;;;;;12.15;5.90;;;;;;;-144.01;100.00;62166.59;5073776;28;20040;-41
2021/04/13 10:53:31;;;;;;;14.48;7.13;;;;;;;-144.01;100.00;62166.59;5074303;28;20074;-41
2021/04/13 10:56:50;;;;;;;20.13;8.60;;;;;;;-144.01;100.00;62166.59;5055858;28;20052;-42
2021/04/13 10:59:42;;;;;;;17.13;7.57;;;;;;;-144.01;100.00;62166.59;5014290;28;20068;-43
2021/04/13 11:02:30;;;;;;;14.88;7.68;;;;;;;-144.01;100.00;62166.59;5058355;28;20052;-42
2021/04/13 11:04:59;;;;;;;15.60;8.00;;;;;;;-144.01;100.00;62166.59;5057938;28;20048;-42
2021/04/13 11:07:35;;;;;;;13.57;6.78;;;;;;;-144.01;100.00;62166.59;5069931;28;20051;-42
2021/04/13 11:10:20;;;;;;;14.13;6.70;;;;;;;-144.01;100.00;62166.59;5077893;28;20044;-41
2021/04/13 11:13:14;;;;;;;10.57;5.18;;;;;;;-144.01;100.00;62166.59;5077060;28;20048;-41
2021/04/13 11:15:56;;;;;;;9.45;4.60;;;;;;;-144.01;100.00;62166.59;5077688;28;20366;-41
2021/04/13 11:18:40;;;;;;;10.60;4.45;;;;;;;-144.01;100.00;62166.59;5077558;28;20051;-41
2021/04/13 11:21:30;;;;;;;9.85;4.88;;;;;;;-144.01;100.00;62166.59;5077923;28;20044;-42
2021/04/13 11:24:00;;;;;;;12.40;4.78;;;;;;;-144.01;100.00;62166.59;5077621;28;20037;-42
2021/04/13 11:26:33;;;;;;;8.70;4.25;;;;;;;-144.01;100.00;62166.59;5076897;28;20071;-42
2021/04/13 11:29:16;;;;;;;11.80;4.68;;;;;;;-144.01;100.00;62166.59;5077656;28;20052;-42
2021/04/13 11:31:43;;;;;;;13.57;4.88;;;;;;;-144.01;100.00;62166.59;5077524;28;20324;-43
2021/04/13 11:34:16;;;;;;;15.10;5.18;;;;;;;-144.01;100.00;62166.59;5077253;28;20044;-42
2021/04/13 11:37:08;;;;;;;9.88;4.75;;;;;;;-144.01;100.00;62166.59;5077217;28;20051;-43
2021/04/13 11:40:01;;;;;;;8.73;4.82;;;;;;;-144.01;100.00;62166.59;5077326;28;20047;-41
2021/04/13 11:42:31;;;;;;;10.07;4.90;;;;;;;-144.01;100.00;62166.59;5077214;28;20045;-42
2021/04/13 11:45:02;;;;;;;10.45;5.72;;;;;;;-144.01;100.00;62166.59;5076958;28;20051;-41
2021/04/13 11:47:31;;;;;;;13.13;5.45;;;;;;;-144.01;100.00;62166.59;5077132;28;20045;-42
2021/04/13 11:50:16;;;;;;;11.77;6.03;;;;;;;-144.01;100.00;62166.59;5077292;28;20451;-42
2021/04/13 11:53:07;;;;;;;12.52;6.35;;;;;;;-144.01;100.00;62166.59;5076399;28;20063;-42
2021/04/13 11:55:38;;;;;;;17.02;7.10;;;;;;;-144.01;100.00;62166.59;5077235;28;20434;-41
2021/04/13 11:58:23;;;;;;;14.90;6.05;;;;;;;-144.01;100.00;62166.59;5076411;28;20045;-43
2021/04/13 12:01:11;;;;;;;12.60;7.00;;;;;;;-144.01;100.00;62166.59;5076974;28;20059;-41